Sierra Vista, AZ (85650)

10:14 PM MST on January 16, 2018 (GMT -0700)
San Pedro | | Change Station

Elev 4678 ft 31.48 °N, 110.25 °W | Updated 19 seconds ago

Partly Cloudy
Partly Cloudy
41.5 °F
Feels Like 42 °F
N
1.3
Wind Variable Wind from South
Gusts 2.5 mph

Today
High -- | Low -- °F
--% Chance of Precip.
Yesterday
High -- | Low -- °F
Precip. -- in
Pressure 30.23 in
Visibility 9.0 miles
Clouds Scattered Clouds 12000 ft
Mostly Cloudy 14000 ft
Windchill 42 °F
Dew Point 20 °F
Humidity 41%
Rainfall 0.00 in
Snow Depth Not available.
7:20 AM 5:41 PM
New Moon, 0% visible
METAR KFHU 170458Z AUTO 04004KT 9SM SCT120 BKN140 04/M09 A3029 RMK AO2 SLP237 T00381092
Pressure 30.23 in
Visibility 9.0 miles
Clouds Scattered Clouds 12000 ft
Mostly Cloudy 14000 ft
Windchill 42 °F
Dew Point 20 °F
Humidity 41%
Rainfall 0.00 in
Snow Depth Not available.
7:20 AM 5:41 PM
New Moon, 0% visible
METAR KFHU 170458Z AUTO 04004KT 9SM SCT120 BKN140 04/M09 A3029 RMK AO2 SLP237 T00381092

Get Severe Weather Alerts

Thanks for signing up!

Be on the lookout for a verification email in your inbox.

You'll start receiving the daily forecast at 6 AM.

×

10-Day Weather Forecast

Almanac

Astronomy

Jan. 16, 2018 Rise Set
Actual Time
Civil Twilight
Nautical Twilight
Astronomical Twilight
Moon
Length of Visible Light
Length of Day
Tomorrow will be .
, % of the Moon is Illuminated

Today's Extremes

State Highs State Lows

Community

WunderPhotos

Category 6

Welcome to Category 6. This is the collective home for Weather Underground's featured writeups by Dr. Jeff Masters (right), Bob Henson (left), Chris Burt, and other regular contributors.

Nearby

Air Quality

  Air Quality AQ Index Pollutant
Not available.

Snow Depth

Station Depth Elevation

Earthquake Activity

City Distance Mag. Time & Date
Minimum magnitude displayed is 2.5.

Coastal Water Temperatures

Place Temperature

Stations

Nearby Weather Stations

Station Location Temp. Windchill Dew Point Humidity Wind Precip. Elev Updated Type
                   

Watches & Warnings

There are currently no watches in effect.